createdAt,value
2018-09-07T00:01:22.270Z,36.67
2018-09-07T00:03:50.643Z,37.80
2018-09-07T00:06:19.031Z,36.50
2018-09-07T00:08:47.383Z,33.53
2018-09-07T00:11:19.399Z,31.70
2018-09-07T00:13:48.301Z,31.10
2018-09-07T00:16:16.659Z,32.23
2018-09-07T00:18:44.997Z,27.40
2018-09-07T00:21:13.371Z,27.53
2018-09-07T00:23:41.734Z,27.10
2018-09-07T00:26:10.098Z,25.17
2018-09-07T00:28:38.473Z,26.43
2018-09-07T00:31:06.830Z,25.40
2018-09-07T00:33:35.257Z,24.77
2018-09-07T00:36:03.641Z,24.93
2018-09-07T00:38:31.995Z,25.60
2018-09-07T00:41:00.368Z,27.37
2018-09-07T00:43:28.723Z,24.93
2018-09-07T00:45:57.076Z,22.50
2018-09-07T00:48:25.692Z,24.10
2018-09-07T00:50:54.066Z,25.47
2018-09-07T00:53:22.861Z,23.80
2018-09-07T00:55:51.267Z,23.53
2018-09-07T00:58:19.618Z,19.97
2018-09-07T01:00:48.474Z,20.80
2018-09-07T01:03:16.890Z,18.67
2018-09-07T01:05:45.265Z,19.23
2018-09-07T01:08:13.690Z,18.20
2018-09-07T01:10:42.073Z,16.73
2018-09-07T01:13:10.390Z,16.60
2018-09-07T01:15:38.754Z,16.10
2018-09-07T01:18:07.133Z,17.20
2018-09-07T01:20:35.584Z,18.93
2018-09-07T01:23:03.934Z,15.90
2018-09-07T01:25:32.313Z,15.30
2018-09-07T01:28:00.703Z,17.63
2018-09-07T01:30:29.130Z,17.57
2018-09-07T01:32:58.451Z,17.50
2018-09-07T01:35:27.822Z,26.07
2018-09-07T01:38:01.447Z,24.53
2018-09-07T01:40:29.935Z,23.90
2018-09-07T01:42:58.282Z,28.37
2018-09-07T01:45:26.641Z,29.20
2018-09-07T01:47:55.015Z,28.23
2018-09-07T01:50:23.670Z,32.70
2018-09-07T01:52:52.010Z,31.67
2018-09-07T01:55:20.374Z,29.90
2018-09-07T01:57:48.730Z,33.93
2018-09-07T02:00:17.052Z,31.13
2018-09-07T02:02:50.806Z,30.50
2018-09-07T02:05:19.170Z,31.20
2018-09-07T02:07:47.545Z,29.23
2018-09-07T02:10:15.902Z,31.47
2018-09-07T02:12:44.246Z,28.00
2018-09-07T02:15:12.619Z,26.77
2018-09-07T02:17:41.016Z,24.57
2018-09-07T02:20:10.141Z,22.03
2018-09-07T02:22:38.494Z,20.07
2018-09-07T02:25:06.973Z,17.10
2018-09-07T02:27:35.337Z,15.40
2018-09-07T02:30:03.751Z,14.77
2018-09-07T02:32:32.117Z,14.30
2018-09-07T02:35:00.430Z,13.63
2018-09-07T02:37:28.759Z,15.20
2018-09-07T02:39:57.092Z,13.47
2018-09-07T02:42:25.428Z,14.20
2018-09-07T02:44:53.803Z,14.53
2018-09-07T02:47:22.166Z,11.97
2018-09-07T02:49:50.535Z,14.10
2018-09-07T02:52:19.005Z,13.33
2018-09-07T02:54:47.386Z,14.10
2018-09-07T02:57:15.751Z,13.43
2018-09-07T02:59:44.170Z,13.97
2018-09-07T03:02:12.543Z,13.73
2018-09-07T03:04:40.910Z,13.30
2018-09-07T03:07:09.239Z,13.27
2018-09-07T03:09:37.602Z,15.43
2018-09-07T03:12:05.963Z,14.20
2018-09-07T03:14:34.441Z,12.90
2018-09-07T03:17:02.813Z,12.53
2018-09-07T03:19:31.201Z,13.57
2018-09-07T03:21:59.560Z,14.50
2018-09-07T03:24:27.932Z,14.80
2018-09-07T03:26:56.244Z,15.13
2018-09-07T03:29:24.574Z,16.70
2018-09-07T03:31:52.906Z,16.47
2018-09-07T03:34:21.251Z,15.73
2018-09-07T03:36:49.590Z,16.33
2018-09-07T03:39:17.903Z,17.23
2018-09-07T03:41:46.272Z,17.60
2018-09-07T03:44:14.603Z,18.13
2018-09-07T03:46:42.970Z,16.93
2018-09-07T03:49:11.305Z,16.10
2018-09-07T03:51:39.702Z,17.00
2018-09-07T03:54:08.035Z,16.03
2018-09-07T03:56:36.359Z,17.50
2018-09-07T03:59:04.806Z,14.97
2018-09-07T04:01:33.252Z,15.57
2018-09-07T04:04:01.583Z,15.17
2018-09-07T04:06:29.981Z,14.67
2018-09-07T04:08:58.342Z,15.97
2018-09-07T04:11:26.731Z,17.20
2018-09-07T04:13:55.046Z,15.57
2018-09-07T04:16:23.452Z,17.70
2018-09-07T04:18:51.806Z,17.13
2018-09-07T04:21:20.955Z,17.13
2018-09-07T04:23:49.324Z,18.10
2018-09-07T04:26:17.667Z,16.97
2018-09-07T04:28:46.011Z,17.07
2018-09-07T04:31:14.371Z,18.20
2018-09-07T04:33:42.743Z,19.57
2018-09-07T04:36:11.102Z,19.17
2018-09-07T04:38:39.478Z,18.77
2018-09-07T04:41:07.931Z,19.70
2018-09-07T04:43:36.313Z,24.27
2018-09-07T04:46:04.657Z,25.17
2018-09-07T04:48:33.030Z,26.40
2018-09-07T04:51:01.378Z,25.80
2018-09-07T04:53:29.709Z,26.97
2018-09-07T04:55:58.059Z,27.10
2018-09-07T04:58:26.425Z,28.60
2018-09-07T05:00:55.215Z,28.27
2018-09-07T05:03:23.575Z,26.73
2018-09-07T05:05:51.905Z,25.80
2018-09-07T05:08:20.666Z,26.50
2018-09-07T05:10:49.030Z,27.20
2018-09-07T05:13:17.399Z,26.47
2018-09-07T05:15:45.770Z,24.30
2018-09-07T05:18:14.167Z,26.00
2018-09-07T05:20:42.504Z,25.17
2018-09-07T05:23:10.992Z,27.00
2018-09-07T05:25:39.302Z,25.77
2018-09-07T05:28:12.461Z,25.80
2018-09-07T05:30:40.780Z,24.77
2018-09-07T05:33:09.153Z,26.20
2018-09-07T05:35:37.506Z,26.17
2018-09-07T05:38:05.894Z,25.20
2018-09-07T05:40:34.297Z,25.50
2018-09-07T05:43:02.682Z,26.50
2018-09-07T05:45:31.150Z,26.93
2018-09-07T05:47:59.629Z,26.57
2018-09-07T05:50:28.014Z,24.47
2018-09-07T05:52:56.375Z,27.60
2018-09-07T05:55:24.847Z,26.40
2018-09-07T05:57:53.311Z,25.27
2018-09-07T06:00:21.829Z,24.27
2018-09-07T06:02:50.190Z,24.03
2018-09-07T06:05:19.369Z,23.37
2018-09-07T06:07:47.845Z,25.70
2018-09-07T06:10:16.251Z,23.80
2018-09-07T06:12:44.615Z,23.80
2018-09-07T06:15:12.960Z,28.77
2018-09-07T06:17:41.472Z,25.17
2018-09-07T06:20:09.894Z,24.07
2018-09-07T06:22:38.318Z,23.20
2018-09-07T06:25:06.681Z,23.60
2018-09-07T06:27:35.150Z,23.70
2018-09-07T06:30:03.606Z,22.00
2018-09-07T06:32:32.053Z,22.67
2018-09-07T06:35:00.550Z,24.43
2018-09-07T06:37:28.905Z,24.37
2018-09-07T06:39:57.307Z,23.40
2018-09-07T06:42:25.753Z,23.80
2018-09-07T06:44:54.157Z,23.97
2018-09-07T06:47:22.510Z,22.93
2018-09-07T06:49:50.886Z,21.47
2018-09-07T06:52:19.316Z,22.70
2018-09-07T06:54:47.653Z,22.30
2018-09-07T06:57:16.033Z,21.60
2018-09-07T06:59:44.429Z,21.80
2018-09-07T07:02:12.950Z,21.23
2018-09-07T07:04:41.401Z,23.00
2018-09-07T07:07:09.785Z,22.77
2018-09-07T07:09:38.421Z,22.53
2018-09-07T07:12:06.830Z,22.40
2018-09-07T07:14:35.915Z,21.53
2018-09-07T07:17:04.289Z,23.10
2018-09-07T07:19:32.682Z,23.67
2018-09-07T07:22:01.021Z,21.83
2018-09-07T07:24:29.485Z,23.90
2018-09-07T07:26:59.089Z,22.97
2018-09-07T07:29:28.212Z,22.93
2018-09-07T07:31:56.609Z,21.67
2018-09-07T07:34:25.021Z,21.27
2018-09-07T07:36:53.409Z,22.50
2018-09-07T07:39:21.798Z,23.10
2018-09-07T07:41:50.122Z,22.30
2018-09-07T07:44:18.486Z,21.47
2018-09-07T07:46:46.858Z,22.50
2018-09-07T07:49:15.568Z,22.37
2018-09-07T07:51:43.927Z,21.53
2018-09-07T07:54:12.298Z,21.33
2018-09-07T07:56:40.692Z,22.47
2018-09-07T07:59:09.185Z,21.00
2018-09-07T08:01:37.557Z,21.20
2018-09-07T08:04:05.959Z,22.10
2018-09-07T08:06:34.326Z,19.47
2018-09-07T08:09:03.957Z,19.90
2018-09-07T08:11:36.917Z,21.27
2018-09-07T08:14:12.721Z,20.07
2018-09-07T08:16:41.326Z,19.73
2018-09-07T08:19:09.794Z,19.43
2018-09-07T08:21:38.167Z,19.50
2018-09-07T08:24:07.102Z,17.80
2018-09-07T08:26:35.544Z,13.63
2018-09-07T08:29:03.890Z,12.63
2018-09-07T08:31:32.259Z,11.20
2018-09-07T08:34:00.678Z,10.80
2018-09-07T08:36:29.076Z,12.07
2018-09-07T08:38:57.489Z,11.03
2018-09-07T08:41:26.041Z,12.07
2018-09-07T08:43:54.561Z,10.90
2018-09-07T08:46:23.020Z,10.70
2018-09-07T08:48:51.422Z,10.93
2018-09-07T08:51:21.642Z,10.73
2018-09-07T08:53:50.018Z,10.50
2018-09-07T08:56:18.459Z,10.37
2018-09-07T08:58:46.838Z,9.03
2018-09-07T09:01:15.171Z,10.50
2018-09-07T09:03:43.575Z,10.80
2018-09-07T09:06:11.962Z,12.37
2018-09-07T09:08:40.379Z,10.73
2018-09-07T09:11:08.769Z,10.80
2018-09-07T09:13:37.162Z,9.90
2018-09-07T09:16:05.942Z,11.13
2018-09-07T09:18:34.259Z,11.40
2018-09-07T09:21:02.672Z,12.70
2018-09-07T09:23:31.096Z,13.23
2018-09-07T09:25:59.462Z,13.83
2018-09-07T09:28:27.832Z,12.00
2018-09-07T09:30:56.255Z,13.87
2018-09-07T09:33:24.650Z,14.77
2018-09-07T09:35:53.149Z,14.43
2018-09-07T09:38:21.653Z,13.27
2018-09-07T09:40:50.013Z,13.43
2018-09-07T09:43:18.797Z,14.20
2018-09-07T09:45:47.245Z,12.00
2018-09-07T09:48:15.634Z,11.90
2018-09-07T09:50:44.149Z,11.37
2018-09-07T09:53:12.875Z,14.30
2018-09-07T09:55:41.235Z,13.10
2018-09-07T09:58:09.586Z,12.90
2018-09-07T10:00:43.405Z,13.80
2018-09-07T10:04:17.804Z,14.50
2018-09-07T10:06:46.175Z,13.50
2018-09-07T10:09:14.814Z,14.77
2018-09-07T10:11:43.583Z,14.43
2018-09-07T10:14:11.903Z,11.97
2018-09-07T10:16:40.258Z,14.40
2018-09-07T10:19:08.674Z,12.93
2018-09-07T10:21:36.946Z,13.00
2018-09-07T10:24:05.359Z,11.70
2018-09-07T10:26:33.847Z,11.83
2018-09-07T10:29:02.289Z,12.03
2018-09-07T10:31:30.815Z,10.57
2018-09-07T10:33:59.154Z,12.13
2018-09-07T10:36:27.529Z,11.77
2018-09-07T10:38:56.000Z,13.10
2018-09-07T10:41:24.929Z,11.90
2018-09-07T10:43:53.316Z,10.53
2018-09-07T10:46:22.018Z,12.10
2018-09-07T10:48:50.670Z,13.00
2018-09-07T10:51:19.011Z,10.90
2018-09-07T10:53:47.395Z,11.80
2018-09-07T10:56:15.730Z,12.10
2018-09-07T10:58:44.484Z,10.23
2018-09-07T11:01:12.899Z,8.80
2018-09-07T11:03:41.333Z,9.80
2018-09-07T11:06:09.711Z,9.27
2018-09-07T11:08:38.100Z,8.23
2018-09-07T11:11:07.566Z,7.73
2018-09-07T11:13:35.979Z,7.53
2018-09-07T11:16:04.617Z,5.87
2018-09-07T11:18:32.998Z,5.47
2018-09-07T11:21:01.712Z,5.30
2018-09-07T11:23:29.937Z,5.80
2018-09-07T11:25:58.299Z,4.80
2018-09-07T11:28:27.182Z,5.00
2018-09-07T11:30:55.533Z,4.87
2018-09-07T11:33:23.912Z,4.80
2018-09-07T11:35:52.406Z,5.00
2018-09-07T11:38:21.442Z,4.57
2018-09-07T11:40:49.766Z,3.40
2018-09-07T11:43:18.135Z,3.60
2018-09-07T11:45:47.235Z,3.77
2018-09-07T11:48:15.617Z,3.73
2018-09-07T11:50:44.002Z,3.50
2018-09-07T11:53:12.390Z,3.10
2018-09-07T11:55:40.757Z,3.87
2018-09-07T11:58:09.192Z,3.70
2018-09-07T12:00:37.549Z,4.03
2018-09-07T12:03:05.859Z,4.03
2018-09-07T12:05:34.240Z,3.60
2018-09-07T12:08:02.591Z,3.50
2018-09-07T12:10:31.146Z,3.00
2018-09-07T12:12:59.592Z,2.93
2018-09-07T12:15:27.899Z,3.40
2018-09-07T12:17:56.293Z,3.07
2018-09-07T12:20:24.699Z,3.83
2018-09-07T12:22:53.057Z,2.97
2018-09-07T12:25:21.534Z,3.43
2018-09-07T12:27:50.047Z,3.13
2018-09-07T12:30:18.482Z,2.70
2018-09-07T12:32:47.237Z,2.80
2018-09-07T12:35:18.224Z,2.70
2018-09-07T12:37:46.735Z,2.90
2018-09-07T12:40:15.119Z,2.30
2018-09-07T12:42:43.596Z,2.20
2018-09-07T12:45:12.065Z,2.33
2018-09-07T12:47:40.526Z,2.30
2018-09-07T12:50:08.939Z,1.83
2018-09-07T12:52:37.973Z,2.40
2018-09-07T12:55:06.327Z,2.17
2018-09-07T12:57:34.734Z,1.83
2018-09-07T13:00:03.097Z,1.77
2018-09-07T13:02:31.451Z,1.60
2018-09-07T13:04:59.944Z,2.10
2018-09-07T13:07:28.415Z,1.87
2018-09-07T13:09:56.812Z,1.63
2018-09-07T13:12:25.230Z,1.90
2018-09-07T13:14:53.615Z,1.70
2018-09-07T13:17:22.010Z,1.40
2018-09-07T13:19:50.392Z,2.10
2018-09-07T13:22:18.738Z,1.70
2018-09-07T13:24:47.219Z,1.60
2018-09-07T13:27:15.585Z,2.10
2018-09-07T13:29:43.978Z,2.30
2018-09-07T13:32:12.586Z,1.90
2018-09-07T13:34:40.957Z,2.60
2018-09-07T13:37:09.319Z,2.30
2018-09-07T13:39:37.682Z,2.53
2018-09-07T13:42:06.058Z,2.50
2018-09-07T13:44:34.565Z,2.40
2018-09-07T13:47:02.962Z,2.33
2018-09-07T13:49:31.348Z,2.40
2018-09-07T13:51:59.743Z,2.70
2018-09-07T13:54:28.130Z,1.87
2018-09-07T13:56:56.505Z,2.03
2018-09-07T13:59:24.984Z,2.20
2018-09-07T14:01:53.341Z,2.23
2018-09-07T14:04:21.731Z,1.93
2018-09-07T14:06:50.556Z,1.60
2018-09-07T14:09:18.930Z,2.53
2018-09-07T14:11:47.316Z,2.23
2018-09-07T14:14:15.748Z,2.30
2018-09-07T14:16:44.189Z,1.87
2018-09-07T14:19:12.612Z,1.70
2018-09-07T14:21:41.100Z,2.00
2018-09-07T14:24:09.404Z,1.90
2018-09-07T14:26:37.811Z,2.40
2018-09-07T14:29:06.222Z,1.70
2018-09-07T14:31:34.664Z,2.00
2018-09-07T14:34:03.040Z,2.10
2018-09-07T14:36:31.447Z,1.93
2018-09-07T14:38:59.870Z,1.70
2018-09-07T14:41:28.279Z,1.77
2018-09-07T14:43:56.970Z,2.50
2018-09-07T14:46:25.393Z,1.87
2018-09-07T14:48:53.857Z,1.70
2018-09-07T14:51:22.259Z,1.97
2018-09-07T14:53:50.697Z,2.00
2018-09-07T14:56:19.066Z,2.20
2018-09-07T14:58:47.472Z,1.80
2018-09-07T15:01:15.857Z,1.87
2018-09-07T15:03:45.014Z,1.93
2018-09-07T15:06:13.464Z,1.53
2018-09-07T15:08:41.841Z,1.50
2018-09-07T15:11:10.213Z,1.47
2018-09-07T15:13:38.653Z,1.83
2018-09-07T15:16:07.222Z,1.20
2018-09-07T15:18:35.620Z,1.20
2018-09-07T15:21:04.065Z,1.73
2018-09-07T15:23:32.667Z,1.70
2018-09-07T15:26:01.142Z,1.50
2018-09-07T15:28:29.573Z,1.83
2018-09-07T15:30:57.950Z,1.50
2018-09-07T15:33:26.282Z,1.60
2018-09-07T15:35:54.712Z,1.40
2018-09-07T15:38:23.147Z,1.83
2018-09-07T15:40:51.742Z,1.20
2018-09-07T15:43:20.106Z,1.70
2018-09-07T15:45:48.543Z,1.73
2018-09-07T15:48:16.992Z,1.40
2018-09-07T15:50:45.383Z,1.50
2018-09-07T15:53:13.752Z,2.27
2018-09-07T15:55:42.192Z,1.87
2018-09-07T15:58:10.543Z,1.90
2018-09-07T16:00:38.948Z,1.50
2018-09-07T16:03:07.383Z,1.50
2018-09-07T16:05:35.762Z,1.60
2018-09-07T16:08:04.110Z,1.90
2018-09-07T16:10:32.594Z,1.70
2018-09-07T16:13:00.964Z,1.50
2018-09-07T16:15:29.341Z,1.80
2018-09-07T16:17:57.735Z,1.70
2018-09-07T16:20:26.142Z,1.87
2018-09-07T16:22:54.527Z,1.47
2018-09-07T16:25:23.804Z,1.77
2018-09-07T16:27:52.219Z,1.37
2018-09-07T16:30:20.633Z,1.60
2018-09-07T16:32:50.682Z,1.60
2018-09-07T16:35:19.972Z,1.83
2018-09-07T16:37:48.361Z,1.30
2018-09-07T16:40:16.726Z,2.40
2018-09-07T16:42:45.125Z,1.20
2018-09-07T16:45:13.516Z,3.20
2018-09-07T16:47:41.907Z,1.53
2018-09-07T16:50:10.066Z,1.37
2018-09-07T16:52:38.431Z,1.60
2018-09-07T16:55:06.821Z,1.67
2018-09-07T16:57:35.247Z,1.70
2018-09-07T17:00:03.818Z,2.03
2018-09-07T17:02:32.251Z,1.80
2018-09-07T17:05:00.614Z,1.67
2018-09-07T17:07:29.060Z,1.77
2018-09-07T17:09:57.444Z,1.57
2018-09-07T17:12:25.922Z,1.40
2018-09-07T17:14:54.298Z,1.80
2018-09-07T17:17:22.754Z,1.60
2018-09-07T17:19:51.463Z,1.73
2018-09-07T17:22:19.792Z,2.03
2018-09-07T17:24:48.121Z,1.53
2018-09-07T17:27:16.491Z,1.80
2018-09-07T17:29:44.860Z,2.00
2018-09-07T17:32:13.265Z,1.57
2018-09-07T17:34:41.581Z,2.20
2018-09-07T17:37:09.965Z,1.70
2018-09-07T17:39:38.378Z,1.77
2018-09-07T17:42:06.761Z,2.10
2018-09-07T17:44:35.122Z,1.70
2018-09-07T17:47:03.555Z,1.23
2018-09-07T17:49:31.978Z,1.43
2018-09-07T17:52:00.373Z,1.23
2018-09-07T17:54:28.814Z,1.40
2018-09-07T17:56:57.219Z,1.60
2018-09-07T17:59:25.588Z,1.40
2018-09-07T18:01:54.080Z,1.67
2018-09-07T18:04:22.438Z,1.60
2018-09-07T18:06:50.842Z,1.60
2018-09-07T18:09:19.206Z,1.80
2018-09-07T18:11:47.824Z,1.70
2018-09-07T18:14:16.226Z,1.80
2018-09-07T18:16:44.603Z,2.10
2018-09-07T18:19:13.096Z,1.80
2018-09-07T18:21:41.517Z,1.90
2018-09-07T18:24:09.939Z,2.27
2018-09-07T18:26:38.288Z,1.97
2018-09-07T18:29:06.662Z,1.50
2018-09-07T18:31:35.075Z,2.10
2018-09-07T18:34:03.514Z,1.80
2018-09-07T18:36:31.914Z,1.83
2018-09-07T18:39:00.572Z,1.90
2018-09-07T18:41:28.978Z,1.90
2018-09-07T18:43:57.372Z,2.27
2018-09-07T18:46:25.770Z,2.00
2018-09-07T18:48:54.194Z,1.53
2018-09-07T18:51:22.596Z,2.30
2018-09-07T18:53:50.990Z,1.60
2018-09-07T18:56:19.394Z,1.90
2018-09-07T18:58:47.798Z,2.07
2018-09-07T19:01:16.225Z,2.10
2018-09-07T19:03:44.616Z,2.00
2018-09-07T19:06:12.972Z,1.90
2018-09-07T19:08:41.407Z,1.97
2018-09-07T19:11:09.790Z,2.60
2018-09-07T19:13:38.443Z,2.80
2018-09-07T19:16:06.940Z,3.10
2018-09-07T19:18:35.323Z,2.70
2018-09-07T19:21:03.763Z,3.63
2018-09-07T19:23:32.219Z,3.43
2018-09-07T19:26:00.583Z,2.90
2018-09-07T19:28:29.012Z,2.60
2018-09-07T19:30:57.451Z,3.20
2018-09-07T19:33:25.860Z,3.20
2018-09-07T19:35:54.302Z,2.87
2018-09-07T19:38:22.718Z,3.77
2018-09-07T19:40:51.121Z,4.00
2018-09-07T19:43:19.570Z,3.10
2018-09-07T19:45:47.954Z,2.97
2018-09-07T19:48:16.345Z,2.80
2018-09-07T19:50:45.403Z,3.00
2018-09-07T19:53:13.840Z,3.20
2018-09-07T19:55:42.270Z,3.30
2018-09-07T19:58:10.706Z,3.20
2018-09-07T20:00:39.172Z,2.80
2018-09-07T20:03:07.523Z,4.07
2018-09-07T20:05:35.889Z,2.87
2018-09-07T20:08:04.289Z,4.50
2018-09-07T20:10:32.682Z,3.80
2018-09-07T20:13:01.144Z,3.50
2018-09-07T20:15:29.643Z,3.10
2018-09-07T20:17:58.048Z,3.40
2018-09-07T20:20:26.447Z,3.20
2018-09-07T20:22:54.824Z,3.40
2018-09-07T20:25:24.328Z,3.37
2018-09-07T20:27:52.675Z,3.40
2018-09-07T20:30:21.108Z,3.10
2018-09-07T20:32:49.643Z,3.13
2018-09-07T20:35:17.967Z,2.47
2018-09-07T20:37:46.480Z,3.03
2018-09-07T20:40:14.830Z,2.90
2018-09-07T20:42:43.281Z,2.77
2018-09-07T20:45:11.650Z,3.70
2018-09-07T20:47:40.024Z,3.20
2018-09-07T20:50:08.448Z,3.27
2018-09-07T20:52:36.834Z,2.60
2018-09-07T20:55:05.276Z,3.27
2018-09-07T20:57:33.873Z,3.67
2018-09-07T21:00:02.207Z,3.40
2018-09-07T21:02:30.646Z,3.13
2018-09-07T21:04:59.164Z,3.00
2018-09-07T21:07:27.523Z,3.67
2018-09-07T21:09:55.957Z,4.07
2018-09-07T21:12:24.326Z,3.47
2018-09-07T21:14:52.728Z,3.77
2018-09-07T21:17:21.136Z,4.07
2018-09-07T21:19:49.525Z,3.57
2018-09-07T21:22:17.995Z,4.07
2018-09-07T21:24:46.364Z,3.80
2018-09-07T21:27:14.746Z,3.50
2018-09-07T21:29:43.103Z,2.73
2018-09-07T21:32:11.535Z,4.00
2018-09-07T21:34:39.906Z,2.90
2018-09-07T21:37:08.340Z,3.40
2018-09-07T21:39:36.708Z,3.80
2018-09-07T21:42:05.092Z,3.87
2018-09-07T21:44:33.425Z,5.00
2018-09-07T21:47:01.792Z,3.20
2018-09-07T21:49:30.186Z,3.70
2018-09-07T21:51:58.601Z,3.30
2018-09-07T21:54:27.010Z,3.63
2018-09-07T21:56:55.389Z,3.60
2018-09-07T21:59:23.835Z,2.93
2018-09-07T22:01:52.258Z,3.30
2018-09-07T22:04:20.680Z,3.23
2018-09-07T22:06:55.465Z,3.50
2018-09-07T22:09:23.970Z,3.63
2018-09-07T22:11:52.352Z,3.40
2018-09-07T22:14:21.040Z,3.40
2018-09-07T22:16:50.330Z,4.00
2018-09-07T22:19:18.744Z,4.00
2018-09-07T22:21:47.083Z,3.80
2018-09-07T22:24:15.476Z,3.00
2018-09-07T22:26:43.939Z,3.50
2018-09-07T22:29:12.356Z,3.13
2018-09-07T22:31:40.973Z,3.53
2018-09-07T22:34:09.203Z,3.90
2018-09-07T22:36:37.566Z,3.07
2018-09-07T22:39:06.340Z,3.87
2018-09-07T22:41:34.908Z,3.30
2018-09-07T22:44:07.577Z,3.50
2018-09-07T22:46:37.184Z,3.80
2018-09-07T22:49:05.637Z,4.10
2018-09-07T22:51:34.458Z,3.10
2018-09-07T22:54:02.864Z,3.53
2018-09-07T22:56:31.692Z,3.87
2018-09-07T22:59:00.084Z,3.00
2018-09-07T23:01:28.495Z,3.40
2018-09-07T23:03:56.815Z,3.70
2018-09-07T23:06:30.583Z,3.13
2018-09-07T23:08:58.969Z,3.80
2018-09-07T23:11:27.411Z,3.63
2018-09-07T23:13:55.760Z,3.73
2018-09-07T23:16:24.161Z,3.63
2018-09-07T23:18:52.507Z,3.60
2018-09-07T23:21:20.906Z,2.93
2018-09-07T23:23:49.314Z,2.97
2018-09-07T23:26:17.665Z,2.83
2018-09-07T23:28:46.067Z,3.43
2018-09-07T23:31:14.668Z,3.07
2018-09-07T23:33:43.085Z,3.50
2018-09-07T23:36:11.435Z,2.90
2018-09-07T23:38:39.855Z,3.50
2018-09-07T23:41:08.273Z,3.17
2018-09-07T23:43:36.623Z,3.40
2018-09-07T23:46:05.004Z,3.10
2018-09-07T23:48:33.337Z,3.00
2018-09-07T23:51:01.701Z,3.17
2018-09-07T23:53:30.033Z,2.70
2018-09-07T23:55:58.369Z,2.80
2018-09-07T23:58:26.805Z,3.10
